Pahrump, Nevada Weather observations

Data are for observation ending at time listed.
 Day   Time    Ave.   Ave.  Ave.  Vector   Max.   Stn.    Total    Solar   Ave.  
  of    of     Air    Rel.  Wind   Wind    Wind   Baro.  Precip.   Rad.    Soil  
Year   Day     Temp.  Hum.  Speed  Dir.    Gust   Pres.                    Temp. 
2015   (PST)    F      %     mph   deg.    mph     mb.     in.     W/m2     F   
------------------------------------------------------------------------------
  56   20:10   54.2    45    1.3    48      3.2   920.9    0.00       0    51.3
  56   20:20   52.9    50    1.4    45      2.4   920.8    0.00       0    51.2
  56   20:30   52.7    48    1.5    49      2.9   920.7    0.00       0    51.0
  56   20:40   53.3    44    2.7    56      4.7   920.7    0.00       0    50.9
  56   20:50   54.2    39    3.6    57      5.3   920.7    0.00       0    50.7
  56   21:00   54.3    38    1.5    90      3.7   920.9    0.00       0    50.6
  56   21:10   53.5    42    2.2   108      4.5   920.9    0.00       0    50.4
  56   21:20   52.8    44    2.4   104      4.2   920.8    0.00       0    50.3
  56   21:30   52.2    46    1.4    89      2.9   920.6    0.00       0    50.2
  56   21:40   51.3    48    1.2    79      3.7   920.7    0.00       0    50.1
  56   21:50   50.8    48    1.5    67      3.6   920.7    0.00       0    49.9
  56   22:00   50.8    46    2.6    51      4.2   920.5    0.00       0    49.8
  56   22:10   50.9    47    2.0    66      4.1   920.4    0.00       0    49.7
  56   22:20   50.5    46    2.6    88      4.8   920.4    0.00       0    49.6
  56   22:30   51.3    44    0.9   100      2.9   920.4    0.00       0    49.5
  56   22:40   50.5    47    1.0    85      1.6   920.4    0.00       0    49.4
  56   22:50   49.5    55    1.6   127      2.5   920.3    0.00       0    49.2
  56   23:00   48.8    55    0.8   159      1.7   920.3    0.00       0    49.2
  56   23:10   48.5    54    0.8   178      1.9   920.0    0.00       0    49.1
  56   23:20   48.1    55    1.0   277      3.4   919.8    0.00       0    49.0
  56   23:30   46.7    62    0.8   238      3.2   919.8    0.00       0    48.9
  56   23:40   46.3    63    0.8   100      2.3   919.8    0.00       0    48.7
  56   23:50   46.4    62    1.0   158      2.2   919.8    0.00       0    48.7
  57    0:00   45.8    64    1.5   218      2.4   919.6    0.00       0    48.5
  57    0:10   45.7    65    0.1     1      0.9   919.5    0.00       0    48.4
  57    0:20   45.4    68    0.2   184      1.7   919.5    0.00       0    48.3
  57    0:30   45.4    67    1.5   158      2.6   919.4    0.00       0    48.2
  57    0:40   45.3    67    1.6   156      2.9   919.2    0.00       0    48.1
  57    0:50   45.2    67    1.0   128      1.5   919.2    0.00       0    48.0
  57    1:00   44.8    68    0.9   118      2.4   919.4    0.00       0    47.9
  57    1:10   44.4    68    0.7   114      1.3   919.4    0.00       0    47.9
  57    1:20   44.2    70    1.3    83      2.0   919.1    0.00       0    47.8
  57    1:30   44.3    67    0.9   134      2.4   919.0    0.00       0    47.7
  57    1:40   44.8    67    1.1   199      2.5   919.0    0.00       0    47.6
  57    1:50   44.1    69    0.9   313      3.7   919.0    0.00       0    47.5
  57    2:00   43.4    71    0.4    43      1.5   918.9    0.00       0    47.4
  57    2:10   42.7    73    1.0   274      2.3   918.6    0.00       0    47.3
  57    2:20   42.1    75    0.8   130      1.5   918.6    0.00       0    47.2
  57    2:30   42.7    74    1.5    10      3.7   918.3    0.00       0    47.1
  57    2:40   42.4    73    1.6   343      3.0   918.3    0.00       0    47.0
  57    2:50   42.2    74    1.9   124      3.3   918.0    0.00       0    47.0
  57    3:00   42.2    73    1.6   195      2.5   917.7    0.00       0    46.9
  57    3:10   42.5    73    1.5   150      2.7   917.4    0.00       0    46.8
  57    3:20   42.7    71    0.5   213      2.3   917.5    0.00       0    46.7
  57    3:30   41.8    73    0.2   255      2.0   917.4    0.00       0    46.6
  57    3:40   41.1    77    1.1    26      3.3   917.4    0.00       0    46.5
  57    3:50   40.2    78    1.1   340      2.9   917.6    0.00       0    46.5
  57    4:00   39.8    80    1.6    50      2.6   917.5    0.00       0    46.3
  57    4:10   40.1    77    0.2    10      1.2   917.4    0.00       0    46.3
  57    4:20   39.8    77    0.6   266      1.8   917.3    0.00       0    46.2
  57    4:30   39.2    80    1.0   132      2.6   917.2    0.00       0    46.1
  57    4:40   40.1    79    0.9   112      2.1   917.1    0.00       0    46.0
  57    4:50   40.7    76    0.3   114      1.6   916.9    0.00       0    45.9
  57    5:00   40.8    74    0.4    45      1.2   916.8    0.00       0    45.8
  57    5:10   40.5    75    0.4   131      1.5   916.7    0.00       0    45.7
  57    5:20   40.2    75    0.3   327      2.0   916.6    0.00       0    45.6
  57    5:30   40.2    74    1.5   327      2.8   916.6    0.00       0    45.6
  57    5:40   39.4    78    1.3   336      3.5   916.6    0.00       0    45.5
  57    5:50   39.0    80    0.4   199      1.8   916.7    0.00       0    45.4
  57    6:00   38.4    81    1.0   222      2.0   916.8    0.00       0    45.3
  57    6:10   38.3    82    0.5   127      1.5   916.9    0.00       0    45.2
  57    6:20   38.8    83    1.3   120      2.5   917.0    0.00       0    45.2
  57    6:30   39.0    82    1.0   100      1.7   917.1    0.00       5    45.1
  57    6:40   39.3    81    1.3   114      2.4   917.1    0.00       9    45.0
  57    6:50   39.9    80    0.8   100      1.9   917.3    0.00      24    45.0
  57    7:00   42.7    73    0.6   117      2.0   917.3    0.00      51    44.9
  57    7:10   46.1    65    0.7   151      1.7   917.4    0.00      88    45.0
  57    7:20   48.4    60    1.1   123      1.6   917.6    0.00     108    45.0
  57    7:30   50.0    58    1.2   262      2.4   917.9    0.00     176    45.2
  57    7:40   49.5    61    0.3   276      1.6   918.3    0.00      82    45.4
  57    7:50   47.6    63    0.2   278      1.5   918.5    0.00     108    45.5
  57    8:00   49.7    59    0.6   273      2.3   918.5    0.00     206    45.7
  57    8:10   51.4    57    1.0   264      2.3   918.7    0.00     208    46.0
  57    8:20   50.2    58    1.4   179      3.3   918.9    0.00     158    46.1
  57    8:30   48.8    58    2.5   190      3.9   919.1    0.00     121    46.4
  57    8:40   48.3    58    2.9   179      4.7   919.0    0.00     212    46.5
  57    8:50   50.1    56    2.5   184      4.5   918.9    0.00     315    46.7
  57    9:00   53.2    50    2.1   144      3.7   919.0    0.00     454    46.8
  57    9:10   56.0    45    1.9   130      3.9   919.2    0.00     476    47.0
  57    9:20   56.6    40    2.3   150      3.9   919.5    0.00     511    47.1
  57    9:30   57.0    38    2.2   208      4.0   919.8    0.00     537    47.3
  57    9:40   58.0    33    1.3   172      2.6   920.0    0.00     545    47.4
  57    9:50   59.3    32    1.2   176      3.1   920.2    0.00     561    47.6
  57   10:00   59.5    33    1.6   140      3.4   920.3    0.00     578    47.6
  57   10:10   61.3    31    1.2   272      3.7   920.4    0.00     564    47.8
  57   10:20   62.4    28    0.8   330      2.4   920.4    0.00     642    47.9
  57   10:30   63.5    28    1.0   135      2.6   920.6    0.00     557    48.0
  57   10:40   61.9    29    1.6   178      3.4   920.6    0.00      37    48.1
  57   10:50   63.1    27    0.8   245      3.5   920.5    0.00      47    48.2
  57   11:00   65.4    26    1.9   300      8.1   920.3    0.00     553    48.2
  57   11:10   65.2    21    8.4   334     14.4   920.2    0.00     705    48.3
  57   11:20   65.8    18   10.6   333     17.9   920.0    0.00     754    48.5
  57   11:30   66.0    18   11.3   334     17.9   919.7    0.00     759    48.8
  57   11:40   65.8    17   11.6   332     19.3   919.4    0.00     768    49.2
  57   11:50   66.3    18    9.1   327     16.4   919.3    0.00     775    49.9
  57   12:00   66.9    18    9.6   318     16.2   919.2    0.00     695    50.7
  57   12:10   67.1    17    8.7   326     16.3   919.0    0.00     718    51.5
  57   12:20   67.2    18   10.0   312     16.9   918.8    0.00     784    52.4
  57   12:30   67.6    17    9.6   326     16.0   918.6    0.00     765    53.2
  57   12:40   67.8    16    9.0   329     15.2   918.4    0.00     770    53.9
  57   12:50   68.1    16    6.9   335     12.2   918.3    0.00     701    54.6
  57   13:00   68.1    16    7.8   355     16.4   918.0    0.00     622    55.3
  57   13:10   68.3    16    7.5   354     14.0   917.9    0.00     740    56.0
  57   13:20   68.8    16    5.6   353     11.7   917.8    0.00     742    56.6
  57   13:30   68.9    16    6.2     6     12.3   917.6    0.00     451    57.1
  57   13:40   69.2    16    6.6    34     13.8   917.3    0.00     729    57.7
  57   13:50   69.5    15    5.4    29     11.3   917.1    0.00     676    58.0
  57   14:00   69.3    15    6.4   359     16.7   916.9    0.00     590    58.0
  57   14:10   69.5    15   10.2   328     18.6   916.6    0.00     652    57.8
  57   14:20   69.7    14   12.4   323     21.0   916.4    0.00     636    57.7
  57   14:30   69.3    14   11.7   323     19.9   916.2    0.00     608    57.5
  57   14:40   69.0    14   11.3   326     20.7   916.2    0.00     354    57.3
  57   14:50   68.7    13   13.5   333     24.9   916.1    0.00     444    57.1
  57   15:00   69.0    13   12.2   321     21.5   916.0    0.00     539    56.9
  57   15:10   68.8    12   12.3   336     19.4   915.8    0.00     506    56.8
  57   15:20   68.8    12   10.2   325     19.2   915.6    0.00     324    56.7
  57   15:30   68.8    12   12.0   327     20.2   915.4    0.00      92    56.6
  57   15:40   68.6    12   10.2   329     17.8   915.2    0.00     334    56.4
  57   15:50   68.4    12   11.3   334     19.5   915.1    0.00      49    56.3
  57   16:00   68.2    12    9.8   348     17.5   915.1    0.00      48    56.2
  57   16:10   67.9    12    9.8   328     18.4   915.1    0.00      40    56.2
  57   16:20   67.8    12   11.7   331     20.8   915.1    0.00      33    56.1
  57   16:30   67.6    12    9.6   323     17.1   915.1    0.00      30    56.0
  57   16:40   67.3    12    7.4   327     14.1   915.1    0.00      28    55.9
  57   16:50   66.8    12    8.5   341     16.2   915.1    0.00      26    55.8
  57   17:00   66.2    13    6.7   336     12.5   915.1    0.00      12    55.7
  57   17:10   65.8    13    8.2   335     12.6   915.1    0.00      13    55.7
  57   17:20   65.3    12    7.6   345     13.4   915.1    0.00       9    55.5
  57   17:30   64.9    12    7.9   338     14.5   915.0    0.00      11    55.4
  57   17:40   64.7    12   10.3   334     18.4   914.9    0.00       6    55.3
  57   17:50   64.4    13    9.0   331     15.0   914.8    0.00       1    55.2
  57   18:00   63.8    13    7.0   325     15.5   914.9    0.00       0    55.1
  57   18:10   62.5    15    6.1   314     10.5   914.8    0.00       0    55.0
  57   18:20   61.6    16    5.6   319      9.6   914.7    0.00       0    54.9
  57   18:30   61.2    16    6.5   312     10.0   914.7    0.00       0    54.7
  57   18:40   60.4    17    7.7   314     14.1   914.7    0.00       0    54.6
  57   18:50   60.0    18    5.8   314      9.2   914.7    0.00       0    54.4
  57   19:00   60.0    17    6.3   315     10.6   914.6    0.00       0    54.3
  57   19:10   60.3    16    5.9   317     11.5   914.6    0.00       0    54.1
  57   19:20   60.0    16    4.7   340      8.4   914.7    0.00       0    54.0
  57   19:30   58.4    22    2.7    42      4.2   914.8    0.00       0    53.8
  57   19:40   56.6    24    2.1    29      4.2   914.8    0.00       0    53.7
  57   19:50   56.6    23    2.2    24      5.1   914.7    0.00       0    53.5
  57   20:00   56.5    22    2.6   348      4.2   914.5    0.00       0    53.3

Return to Pahrump, Nevada graphs page.


Western Regional Climate Center,wrcc@dri.edu